Sign in to follow this  
MM

Berlin Tempelhof Information

Recommended Posts

Berlin Tempelhof (EDDI) has two runways for approaches from the West.Runway 9R (88*) ILS 109.70Runway 9L (86*) No ILS.The VOR is 114.10 and there is a NDB west of the field at 347.0(You might set up your flightplans accordingly.) The current weather is fine. There is a low pressure system moving in but not sure if it will affect the Airlift time window. You might expect overcast conditions somewhere in Germany today.The current METAR is:EDDI 191550Z 29006KT 9999 BKN028 05/01 Q1005 NOSIGThis is a report for Berlin-Tempelhof, Germany. The report was made 35 minutes ago, at 15:50 UTC. The wind was blowing at a speed of 3.1 meters per second (6.9 miles per hour) from west/northwest (290

Share this post


Link to post
Share on other sites
Help AVSIM continue to serve you!
Please donate today!

Create an account or sign in to comment

You need to be a member in order to leave a comment

Create an account

Sign up for a new account in our community. It's easy!

Register a new account

Sign in

Already have an account? Sign in here.

Sign In Now
Sign in to follow this